sensor_id;sensor_type;location;lat;lon;timestamp;temperature;humidity
27759;DHT22;15148;48.972;12.794;2024-02-14T00:02:06;1.60;99.90
27759;DHT22;15148;48.972;12.794;2024-02-14T00:07:08;1.60;99.90
27759;DHT22;15148;48.972;12.794;2024-02-14T00:12:11;1.70;99.90
27759;DHT22;15148;48.972;12.794;2024-02-14T00:17:13;1.80;99.90
27759;DHT22;15148;48.972;12.794;2024-02-14T00:22:15;1.70;99.90
27759;DHT22;15148;48.972;12.794;2024-02-14T00:27:18;1.60;99.90
27759;DHT22;15148;48.972;12.794;2024-02-14T00:32:20;1.60;99.90
27759;DHT22;15148;48.972;12.794;2024-02-14T00:37:22;1.50;99.90
27759;DHT22;15148;48.972;12.794;2024-02-14T00:42:24;1.50;99.90
27759;DHT22;15148;48.972;12.794;2024-02-14T00:47:26;1.50;99.90
27759;DHT22;15148;48.972;12.794;2024-02-14T00:52:28;1.60;99.90
27759;DHT22;15148;48.972;12.794;2024-02-14T00:57:31;1.50;99.90
27759;DHT22;15148;48.972;12.794;2024-02-14T01:02:34;1.50;99.90
27759;DHT22;15148;48.972;12.794;2024-02-14T01:07:36;1.50;99.90
27759;DHT22;15148;48.972;12.794;2024-02-14T01:12:38;1.50;99.90
27759;DHT22;15148;48.972;12.794;2024-02-14T01:17:41;1.50;99.90
27759;DHT22;15148;48.972;12.794;2024-02-14T01:22:43;1.50;99.90
27759;DHT22;15148;48.972;12.794;2024-02-14T01:27:47;1.40;99.90
27759;DHT22;15148;48.972;12.794;2024-02-14T01:32:51;1.30;99.90
27759;DHT22;15148;48.972;12.794;2024-02-14T01:37:54;1.30;99.90
27759;DHT22;15148;48.972;12.794;2024-02-14T01:42:56;1.30;99.90
27759;DHT22;15148;48.972;12.794;2024-02-14T01:47:58;1.30;99.90
27759;DHT22;15148;48.972;12.794;2024-02-14T01:53:01;1.30;99.90
27759;DHT22;15148;48.972;12.794;2024-02-14T01:58:04;1.20;99.90
27759;DHT22;15148;48.972;12.794;2024-02-14T02:03:06;1.10;99.90
27759;DHT22;15148;48.972;12.794;2024-02-14T02:08:09;1.10;99.90
27759;DHT22;15148;48.972;12.794;2024-02-14T02:13:11;1.10;99.90
27759;DHT22;15148;48.972;12.794;2024-02-14T02:18:13;1.10;99.90
27759;DHT22;15148;48.972;12.794;2024-02-14T02:23:17;1.20;99.90
27759;DHT22;15148;48.972;12.794;2024-02-14T02:28:19;1.30;99.90
27759;DHT22;15148;48.972;12.794;2024-02-14T02:33:22;1.30;99.90
27759;DHT22;15148;48.972;12.794;2024-02-14T02:38:24;1.40;99.90
27759;DHT22;15148;48.972;12.794;2024-02-14T02:43:26;1.40;99.90
27759;DHT22;15148;48.972;12.794;2024-02-14T02:48:28;1.40;99.90
27759;DHT22;15148;48.972;12.794;2024-02-14T02:53:30;1.40;99.90
27759;DHT22;15148;48.972;12.794;2024-02-14T02:58:32;1.40;99.90
27759;DHT22;15148;48.972;12.794;2024-02-14T03:03:35;1.40;99.90
27759;DHT22;15148;48.972;12.794;2024-02-14T03:08:38;1.50;99.90
27759;DHT22;15148;48.972;12.794;2024-02-14T03:13:40;1.40;99.90
27759;DHT22;15148;48.972;12.794;2024-02-14T03:18:42;1.40;99.90
27759;DHT22;15148;48.972;12.794;2024-02-14T03:23:45;1.50;99.90
27759;DHT22;15148;48.972;12.794;2024-02-14T03:28:47;1.50;99.90
27759;DHT22;15148;48.972;12.794;2024-02-14T03:33:50;1.60;99.90
27759;DHT22;15148;48.972;12.794;2024-02-14T03:38:52;1.50;99.90
27759;DHT22;15148;48.972;12.794;2024-02-14T03:43:54;1.50;99.90
27759;DHT22;15148;48.972;12.794;2024-02-14T03:48:59;1.50;99.90
27759;DHT22;15148;48.972;12.794;2024-02-14T03:54:02;1.40;99.90
27759;DHT22;15148;48.972;12.794;2024-02-14T03:59:04;1.50;99.90
27759;DHT22;15148;48.972;12.794;2024-02-14T04:04:07;1.50;99.90
27759;DHT22;15148;48.972;12.794;2024-02-14T04:09:09;1.50;99.90
27759;DHT22;15148;48.972;12.794;2024-02-14T04:14:11;1.60;99.90
27759;DHT22;15148;48.972;12.794;2024-02-14T04:19:13;1.60;99.90
27759;DHT22;15148;48.972;12.794;2024-02-14T04:24:19;1.60;99.90
27759;DHT22;15148;48.972;12.794;2024-02-14T04:29:21;1.60;99.90
27759;DHT22;15148;48.972;12.794;2024-02-14T04:34:23;1.60;99.90
27759;DHT22;15148;48.972;12.794;2024-02-14T04:39:25;1.50;99.90
27759;DHT22;15148;48.972;12.794;2024-02-14T04:44:28;1.50;99.90
27759;DHT22;15148;48.972;12.794;2024-02-14T04:49:30;1.40;99.90
27759;DHT22;15148;48.972;12.794;2024-02-14T04:54:32;1.40;99.90
27759;DHT22;15148;48.972;12.794;2024-02-14T04:59:35;1.40;99.90
27759;DHT22;15148;48.972;12.794;2024-02-14T05:04:37;1.30;99.90
27759;DHT22;15148;48.972;12.794;2024-02-14T05:09:41;1.20;99.90
27759;DHT22;15148;48.972;12.794;2024-02-14T05:14:43;1.10;99.90
27759;DHT22;15148;48.972;12.794;2024-02-14T05:19:45;1.10;99.90
27759;DHT22;15148;48.972;12.794;2024-02-14T05:24:47;1.10;99.90
27759;DHT22;15148;48.972;12.794;2024-02-14T05:29:49;1.10;99.90
27759;DHT22;15148;48.972;12.794;2024-02-14T05:34:51;1.10;99.90
27759;DHT22;15148;48.972;12.794;2024-02-14T05:39:54;1.10;99.90
27759;DHT22;15148;48.972;12.794;2024-02-14T05:44:56;1.10;99.90
27759;DHT22;15148;48.972;12.794;2024-02-14T05:49:59;1.00;99.90
27759;DHT22;15148;48.972;12.794;2024-02-14T05:55:01;1.00;99.90
27759;DHT22;15148;48.972;12.794;2024-02-14T06:00:03;0.90;99.90
27759;DHT22;15148;48.972;12.794;2024-02-14T06:05:13;0.90;99.90
27759;DHT22;15148;48.972;12.794;2024-02-14T06:10:15;0.90;99.90
27759;DHT22;15148;48.972;12.794;2024-02-14T06:15:17;0.80;99.90
27759;DHT22;15148;48.972;12.794;2024-02-14T06:20:19;0.80;99.90
27759;DHT22;15148;48.972;12.794;2024-02-14T06:25:21;0.80;99.90
27759;DHT22;15148;48.972;12.794;2024-02-14T06:30:23;0.80;99.90
27759;DHT22;15148;48.972;12.794;2024-02-14T06:35:29;0.80;99.90
27759;DHT22;15148;48.972;12.794;2024-02-14T06:40:33;0.70;99.90
27759;DHT22;15148;48.972;12.794;2024-02-14T06:45:35;0.70;99.90
27759;DHT22;15148;48.972;12.794;2024-02-14T06:50:37;0.70;99.90
27759;DHT22;15148;48.972;12.794;2024-02-14T06:55:39;0.70;99.90
27759;DHT22;15148;48.972;12.794;2024-02-14T07:00:41;0.60;99.90
27759;DHT22;15148;48.972;12.794;2024-02-14T07:05:44;0.70;99.90
27759;DHT22;15148;48.972;12.794;2024-02-14T07:10:46;0.80;99.90
27759;DHT22;15148;48.972;12.794;2024-02-14T07:15:48;0.90;99.90
27759;DHT22;15148;48.972;12.794;2024-02-14T07:20:50;1.00;99.90
27759;DHT22;15148;48.972;12.794;2024-02-14T07:25:53;1.20;99.90
27759;DHT22;15148;48.972;12.794;2024-02-14T07:30:54;1.20;99.90
27759;DHT22;15148;48.972;12.794;2024-02-14T07:35:56;1.30;99.90
27759;DHT22;15148;48.972;12.794;2024-02-14T07:40:59;1.40;99.90
27759;DHT22;15148;48.972;12.794;2024-02-14T07:46:01;1.60;99.90
27759;DHT22;15148;48.972;12.794;2024-02-14T07:51:07;1.70;99.90
27759;DHT22;15148;48.972;12.794;2024-02-14T07:56:09;1.90;99.90
27759;DHT22;15148;48.972;12.794;2024-02-14T08:01:11;2.00;99.90
27759;DHT22;15148;48.972;12.794;2024-02-14T08:06:14;2.00;99.90
27759;DHT22;15148;48.972;12.794;2024-02-14T08:11:16;2.10;99.90
27759;DHT22;15148;48.972;12.794;2024-02-14T08:16:19;2.30;99.90
27759;DHT22;15148;48.972;12.794;2024-02-14T08:21:21;2.30;99.90
27759;DHT22;15148;48.972;12.794;2024-02-14T08:26:23;2.50;99.90
27759;DHT22;15148;48.972;12.794;2024-02-14T08:31:26;2.60;99.90
27759;DHT22;15148;48.972;12.794;2024-02-14T08:36:28;2.70;99.90
27759;DHT22;15148;48.972;12.794;2024-02-14T08:41:30;3.10;99.90
27759;DHT22;15148;48.972;12.794;2024-02-14T08:46:32;3.30;99.90
27759;DHT22;15148;48.972;12.794;2024-02-14T08:51:35;3.40;99.90
27759;DHT22;15148;48.972;12.794;2024-02-14T08:56:38;3.50;99.90
27759;DHT22;15148;48.972;12.794;2024-02-14T09:01:40;3.60;99.90
27759;DHT22;15148;48.972;12.794;2024-02-14T09:06:42;3.70;99.90
27759;DHT22;15148;48.972;12.794;2024-02-14T09:11:44;3.80;99.90
27759;DHT22;15148;48.972;12.794;2024-02-14T09:16:47;4.00;99.90
27759;DHT22;15148;48.972;12.794;2024-02-14T09:21:50;4.10;99.90
27759;DHT22;15148;48.972;12.794;2024-02-14T09:26:52;4.30;99.90
27759;DHT22;15148;48.972;12.794;2024-02-14T09:31:54;4.50;99.90
27759;DHT22;15148;48.972;12.794;2024-02-14T09:36:56;4.80;99.90
27759;DHT22;15148;48.972;12.794;2024-02-14T09:42:01;4.90;99.90
27759;DHT22;15148;48.972;12.794;2024-02-14T09:47:06;5.10;99.90
27759;DHT22;15148;48.972;12.794;2024-02-14T09:52:11;5.20;99.90
27759;DHT22;15148;48.972;12.794;2024-02-14T09:57:15;5.30;99.90
27759;DHT22;15148;48.972;12.794;2024-02-14T10:02:18;5.30;99.90
27759;DHT22;15148;48.972;12.794;2024-02-14T10:07:20;5.30;99.90
27759;DHT22;15148;48.972;12.794;2024-02-14T10:12:22;5.20;99.90
27759;DHT22;15148;48.972;12.794;2024-02-14T10:17:24;5.20;99.90
27759;DHT22;15148;48.972;12.794;2024-02-14T10:22:35;5.20;99.90
27759;DHT22;15148;48.972;12.794;2024-02-14T10:27:38;5.20;99.90
27759;DHT22;15148;48.972;12.794;2024-02-14T10:32:41;5.20;99.90
27759;DHT22;15148;48.972;12.794;2024-02-14T10:37:49;5.30;99.90
27759;DHT22;15148;48.972;12.794;2024-02-14T10:42:51;5.30;99.90
27759;DHT22;15148;48.972;12.794;2024-02-14T10:47:56;5.40;99.90
27759;DHT22;15148;48.972;12.794;2024-02-14T10:53:00;5.50;99.90
27759;DHT22;15148;48.972;12.794;2024-02-14T10:58:05;5.60;99.90
27759;DHT22;15148;48.972;12.794;2024-02-14T11:03:09;5.60;99.90
27759;DHT22;15148;48.972;12.794;2024-02-14T11:08:19;5.60;99.90
27759;DHT22;15148;48.972;12.794;2024-02-14T11:13:29;5.60;99.90
27759;DHT22;15148;48.972;12.794;2024-02-14T11:18:34;5.60;99.90
27759;DHT22;15148;48.972;12.794;2024-02-14T11:23:38;5.60;99.90
27759;DHT22;15148;48.972;12.794;2024-02-14T11:28:40;5.60;99.90
27759;DHT22;15148;48.972;12.794;2024-02-14T11:33:42;5.70;99.90
27759;DHT22;15148;48.972;12.794;2024-02-14T11:38:46;5.70;99.90
27759;DHT22;15148;48.972;12.794;2024-02-14T11:43:52;5.70;99.90
27759;DHT22;15148;48.972;12.794;2024-02-14T11:48:54;5.80;99.90
27759;DHT22;15148;48.972;12.794;2024-02-14T11:54:00;5.80;99.90
27759;DHT22;15148;48.972;12.794;2024-02-14T11:59:09;5.80;99.90
27759;DHT22;15148;48.972;12.794;2024-02-14T12:04:11;5.90;99.90
27759;DHT22;15148;48.972;12.794;2024-02-14T12:09:14;5.90;99.90
27759;DHT22;15148;48.972;12.794;2024-02-14T12:14:17;5.90;99.90
27759;DHT22;15148;48.972;12.794;2024-02-14T12:19:20;5.90;99.90
27759;DHT22;15148;48.972;12.794;2024-02-14T12:24:22;5.90;99.90
27759;DHT22;15148;48.972;12.794;2024-02-14T12:29:25;6.00;99.90
27759;DHT22;15148;48.972;12.794;2024-02-14T12:34:28;6.00;99.90
27759;DHT22;15148;48.972;12.794;2024-02-14T12:39:30;6.00;99.90
27759;DHT22;15148;48.972;12.794;2024-02-14T12:44:33;6.00;99.90
27759;DHT22;15148;48.972;12.794;2024-02-14T12:49:35;6.10;99.90
27759;DHT22;15148;48.972;12.794;2024-02-14T12:54:37;6.20;99.90
27759;DHT22;15148;48.972;12.794;2024-02-14T12:59:39;6.20;99.90
27759;DHT22;15148;48.972;12.794;2024-02-14T13:04:41;6.30;99.90
27759;DHT22;15148;48.972;12.794;2024-02-14T13:09:46;6.30;99.90
27759;DHT22;15148;48.972;12.794;2024-02-14T13:14:48;6.40;99.90
27759;DHT22;15148;48.972;12.794;2024-02-14T13:19:50;6.40;99.90
27759;DHT22;15148;48.972;12.794;2024-02-14T13:24:55;6.50;99.90
27759;DHT22;15148;48.972;12.794;2024-02-14T13:29:57;6.50;99.90
27759;DHT22;15148;48.972;12.794;2024-02-14T13:34:59;6.50;99.90
27759;DHT22;15148;48.972;12.794;2024-02-14T13:40:02;6.60;99.90
27759;DHT22;15148;48.972;12.794;2024-02-14T13:45:07;6.60;99.90
27759;DHT22;15148;48.972;12.794;2024-02-14T13:50:13;6.70;99.90
27759;DHT22;15148;48.972;12.794;2024-02-14T13:55:15;6.80;99.90
27759;DHT22;15148;48.972;12.794;2024-02-14T14:00:17;6.90;99.90
27759;DHT22;15148;48.972;12.794;2024-02-14T14:05:19;6.90;99.90
27759;DHT22;15148;48.972;12.794;2024-02-14T14:10:23;7.00;99.90
27759;DHT22;15148;48.972;12.794;2024-02-14T14:15:28;7.00;99.90
27759;DHT22;15148;48.972;12.794;2024-02-14T14:20:31;7.00;99.90
27759;DHT22;15148;48.972;12.794;2024-02-14T14:25:33;7.00;99.90
27759;DHT22;15148;48.972;12.794;2024-02-14T14:30:36;7.00;99.90
27759;DHT22;15148;48.972;12.794;2024-02-14T14:35:38;7.10;99.90
27759;DHT22;15148;48.972;12.794;2024-02-14T14:40:40;7.10;99.90
27759;DHT22;15148;48.972;12.794;2024-02-14T14:45:42;7.10;99.90
27759;DHT22;15148;48.972;12.794;2024-02-14T14:50:44;7.20;99.90
27759;DHT22;15148;48.972;12.794;2024-02-14T14:55:50;7.20;99.90
27759;DHT22;15148;48.972;12.794;2024-02-14T15:00:54;7.20;99.90
27759;DHT22;15148;48.972;12.794;2024-02-14T15:06:00;7.20;99.90
27759;DHT22;15148;48.972;12.794;2024-02-14T15:11:03;7.20;99.90
27759;DHT22;15148;48.972;12.794;2024-02-14T15:16:06;7.20;99.90
27759;DHT22;15148;48.972;12.794;2024-02-14T15:21:10;7.20;99.90
27759;DHT22;15148;48.972;12.794;2024-02-14T15:26:15;7.20;99.90
27759;DHT22;15148;48.972;12.794;2024-02-14T15:31:20;7.10;99.90
27759;DHT22;15148;48.972;12.794;2024-02-14T15:37:00;7.10;99.90
27759;DHT22;15148;48.972;12.794;2024-02-14T15:42:02;7.20;99.90
27759;DHT22;15148;48.972;12.794;2024-02-14T15:47:05;7.10;99.90
27759;DHT22;15148;48.972;12.794;2024-02-14T15:52:08;7.00;99.90
27759;DHT22;15148;48.972;12.794;2024-02-14T15:57:11;7.00;99.90
27759;DHT22;15148;48.972;12.794;2024-02-14T16:02:14;7.00;99.90
27759;DHT22;15148;48.972;12.794;2024-02-14T16:07:16;6.90;99.90
27759;DHT22;15148;48.972;12.794;2024-02-14T16:12:18;6.80;99.90
27759;DHT22;15148;48.972;12.794;2024-02-14T16:17:20;6.80;99.90
27759;DHT22;15148;48.972;12.794;2024-02-14T16:22:22;6.70;99.90
27759;DHT22;15148;48.972;12.794;2024-02-14T16:27:26;6.70;99.90
27759;DHT22;15148;48.972;12.794;2024-02-14T16:32:28;6.70;99.90
27759;DHT22;15148;48.972;12.794;2024-02-14T16:37:30;6.60;99.90
27759;DHT22;15148;48.972;12.794;2024-02-14T16:42:32;6.60;99.90
27759;DHT22;15148;48.972;12.794;2024-02-14T16:47:34;6.60;99.90
27759;DHT22;15148;48.972;12.794;2024-02-14T16:52:37;6.60;99.90
27759;DHT22;15148;48.972;12.794;2024-02-14T16:57:39;6.50;99.90
27759;DHT22;15148;48.972;12.794;2024-02-14T17:02:41;6.50;99.90
27759;DHT22;15148;48.972;12.794;2024-02-14T17:07:44;6.50;99.90
27759;DHT22;15148;48.972;12.794;2024-02-14T17:12:47;6.40;99.90
27759;DHT22;15148;48.972;12.794;2024-02-14T17:17:49;6.40;99.90
27759;DHT22;15148;48.972;12.794;2024-02-14T17:22:51;6.30;99.90
27759;DHT22;15148;48.972;12.794;2024-02-14T17:27:53;6.20;99.90
27759;DHT22;15148;48.972;12.794;2024-02-14T17:32:56;6.10;99.90
27759;DHT22;15148;48.972;12.794;2024-02-14T17:38:00;6.00;99.90
27759;DHT22;15148;48.972;12.794;2024-02-14T17:43:02;5.90;99.90
27759;DHT22;15148;48.972;12.794;2024-02-14T17:48:04;5.90;99.90
27759;DHT22;15148;48.972;12.794;2024-02-14T17:53:07;5.90;99.90
27759;DHT22;15148;48.972;12.794;2024-02-14T17:58:09;5.90;99.90
27759;DHT22;15148;48.972;12.794;2024-02-14T18:03:12;5.90;99.90
27759;DHT22;15148;48.972;12.794;2024-02-14T18:08:14;5.90;99.90
27759;DHT22;15148;48.972;12.794;2024-02-14T18:13:16;5.90;99.90
27759;DHT22;15148;48.972;12.794;2024-02-14T18:18:19;5.90;99.90
27759;DHT22;15148;48.972;12.794;2024-02-14T18:23:22;5.90;99.90
27759;DHT22;15148;48.972;12.794;2024-02-14T18:28:24;5.90;99.90
27759;DHT22;15148;48.972;12.794;2024-02-14T18:33:26;5.90;99.90
27759;DHT22;15148;48.972;12.794;2024-02-14T18:38:30;5.90;99.90
27759;DHT22;15148;48.972;12.794;2024-02-14T18:43:33;5.90;99.90
27759;DHT22;15148;48.972;12.794;2024-02-14T18:48:35;5.90;99.90
27759;DHT22;15148;48.972;12.794;2024-02-14T18:53:39;5.90;99.90
27759;DHT22;15148;48.972;12.794;2024-02-14T18:58:43;6.00;99.90
27759;DHT22;15148;48.972;12.794;2024-02-14T19:03:46;6.00;99.90
27759;DHT22;15148;48.972;12.794;2024-02-14T19:08:48;6.10;99.90
27759;DHT22;15148;48.972;12.794;2024-02-14T19:13:52;6.10;99.90
27759;DHT22;15148;48.972;12.794;2024-02-14T19:18:56;6.10;99.90
27759;DHT22;15148;48.972;12.794;2024-02-14T19:23:59;6.10;99.90
27759;DHT22;15148;48.972;12.794;2024-02-14T19:29:01;6.10;99.90
27759;DHT22;15148;48.972;12.794;2024-02-14T19:34:06;6.10;99.90
27759;DHT22;15148;48.972;12.794;2024-02-14T19:39:09;6.10;99.90
27759;DHT22;15148;48.972;12.794;2024-02-14T19:44:11;6.10;99.90
27759;DHT22;15148;48.972;12.794;2024-02-14T19:49:13;6.10;99.90
27759;DHT22;15148;48.972;12.794;2024-02-14T19:54:17;6.20;99.90
27759;DHT22;15148;48.972;12.794;2024-02-14T19:59:19;6.20;99.90
27759;DHT22;15148;48.972;12.794;2024-02-14T20:04:21;6.20;99.90
27759;DHT22;15148;48.972;12.794;2024-02-14T20:09:23;6.20;99.90
27759;DHT22;15148;48.972;12.794;2024-02-14T20:14:25;6.20;99.90
27759;DHT22;15148;48.972;12.794;2024-02-14T20:19:27;6.20;99.90
27759;DHT22;15148;48.972;12.794;2024-02-14T20:24:29;6.20;99.90
27759;DHT22;15148;48.972;12.794;2024-02-14T20:29:35;6.20;99.90
27759;DHT22;15148;48.972;12.794;2024-02-14T20:34:37;6.10;99.90
27759;DHT22;15148;48.972;12.794;2024-02-14T20:39:40;6.10;99.90
27759;DHT22;15148;48.972;12.794;2024-02-14T20:44:42;6.10;99.90
27759;DHT22;15148;48.972;12.794;2024-02-14T20:49:44;6.10;99.90
27759;DHT22;15148;48.972;12.794;2024-02-14T20:54:46;6.10;99.90
27759;DHT22;15148;48.972;12.794;2024-02-14T20:59:48;6.10;99.90
27759;DHT22;15148;48.972;12.794;2024-02-14T21:04:51;6.10;99.90
27759;DHT22;15148;48.972;12.794;2024-02-14T21:09:54;6.10;99.90
27759;DHT22;15148;48.972;12.794;2024-02-14T21:14:56;6.20;99.90
27759;DHT22;15148;48.972;12.794;2024-02-14T21:19:58;6.20;99.90
27759;DHT22;15148;48.972;12.794;2024-02-14T21:25:01;6.20;99.90
27759;DHT22;15148;48.972;12.794;2024-02-14T21:30:05;6.20;99.90
27759;DHT22;15148;48.972;12.794;2024-02-14T21:35:07;6.10;99.90
27759;DHT22;15148;48.972;12.794;2024-02-14T21:40:12;6.10;99.90
27759;DHT22;15148;48.972;12.794;2024-02-14T21:45:14;6.10;99.90
27759;DHT22;15148;48.972;12.794;2024-02-14T21:50:18;6.10;99.90
27759;DHT22;15148;48.972;12.794;2024-02-14T21:55:20;6.10;99.90
27759;DHT22;15148;48.972;12.794;2024-02-14T22:00:22;6.10;99.90
27759;DHT22;15148;48.972;12.794;2024-02-14T22:05:25;6.10;99.90
27759;DHT22;15148;48.972;12.794;2024-02-14T22:10:29;6.10;99.90
27759;DHT22;15148;48.972;12.794;2024-02-14T22:15:33;6.10;99.90
27759;DHT22;15148;48.972;12.794;2024-02-14T22:20:35;6.10;99.90
27759;DHT22;15148;48.972;12.794;2024-02-14T22:25:41;6.10;99.90
27759;DHT22;15148;48.972;12.794;2024-02-14T22:30:44;6.10;99.90
27759;DHT22;15148;48.972;12.794;2024-02-14T22:35:46;6.10;99.90
27759;DHT22;15148;48.972;12.794;2024-02-14T22:40:48;6.20;99.90
27759;DHT22;15148;48.972;12.794;2024-02-14T22:45:50;6.20;99.90
27759;DHT22;15148;48.972;12.794;2024-02-14T22:50:52;6.20;99.90
27759;DHT22;15148;48.972;12.794;2024-02-14T22:55:55;6.20;99.90
27759;DHT22;15148;48.972;12.794;2024-02-14T23:00:58;6.20;99.90
27759;DHT22;15148;48.972;12.794;2024-02-14T23:06:00;6.20;99.90
27759;DHT22;15148;48.972;12.794;2024-02-14T23:11:03;6.20;99.90
27759;DHT22;15148;48.972;12.794;2024-02-14T23:16:05;6.20;99.90
27759;DHT22;15148;48.972;12.794;2024-02-14T23:21:08;6.20;99.90
27759;DHT22;15148;48.972;12.794;2024-02-14T23:26:10;6.20;99.90
27759;DHT22;15148;48.972;12.794;2024-02-14T23:31:12;6.20;99.90
27759;DHT22;15148;48.972;12.794;2024-02-14T23:36:17;6.20;99.90
27759;DHT22;15148;48.972;12.794;2024-02-14T23:41:19;6.20;99.90
27759;DHT22;15148;48.972;12.794;2024-02-14T23:46:22;6.20;99.90
27759;DHT22;15148;48.972;12.794;2024-02-14T23:51:24;6.20;99.90
27759;DHT22;15148;48.972;12.794;2024-02-14T23:56:27;6.20;99.90
